Thunder radar more information blitzortung!


Radar de pluja more information rain snow radar


Visita la nostra xarxa de llocs de meteo:

Template documentation
and downloads

And another site



No particular awareness of the weather is required.    There are no Weather-warnings

Pagina Historial Weather Underground text

Diari Resum Octubre 7, 2017 Unitats:  Imperial    Mètric   Tant
« Previous Dia
SegĂźent Dia »
Diari Setmana Mensual Anual Personalitzada
  Maxima: Minima: Media:
Temperatura: 76.3 °F 58.5 °F 64.4 °F
Punt de rosada: 59.7 °F 46.8 °F 50.9 °F
Humitat: 86 % 44 % 63 %
Wind Speed: 10.4 mph 0 mph 3.3 mph
RĂ fegues de vent: 10.4 mph - -
Vent:- - SSE
Pression baro: 30.3 in 30.1 in -
Precipitacions: 0 in    
Historical Graphs
 
 
Dades de taula per Octubre 7, 2017
Temps Temperatura Punt de rosada Pression baro Vent Wind Speed RĂ fegues de vent Humitat Rainfall Rate (Hourly)
00:03 65.3 °F 59.7 °F 30.1 in WNW 2.3 mph 2.3 mph 82 % 0 in
00:08 65.3 °F 59.7 °F 30.1 in SW 1.2 mph   82 % 0 in
00:13 65.1 °F 59.5 °F 30.1 in WNW 1.2 mph 1.2 mph 82 % 0 in
00:18 64.9 °F 59.4 °F 30.1 in Calm     82 % 0 in
00:23 64.8 °F 59.2 °F 30.1 in Calm     82 % 0 in
00:28 64.4 °F 58.8 °F 30.1 in Calm     82 % 0 in
00:33 64.2 °F 58.6 °F 30.1 in SW 2.3 mph 2.3 mph 82 % 0 in
00:39 63.9 °F 58.3 °F 30.1 in WSW 2.4 mph 2.4 mph 82 % 0 in
00:44 63.5 °F 57.9 °F 30.1 in WSW 2.3 mph 2.3 mph 82 % 0 in
00:49 63.7 °F 58.1 °F 30.1 in WSW 2.3 mph 2.3 mph 82 % 0 in
00:54 63.9 °F 58.6 °F 30.1 in ENE 2 mph   83 % 0 in
00:59 63.5 °F 58.6 °F 30.1 in ENE 1.2 mph 1.4 mph 84 % 0 in
01:04 63.3 °F 58.5 °F 30.1 in SSW 2.2 mph 2.2 mph 84 % 0 in
01:09 63 °F 57.7 °F 30.1 in South 1.2 mph 1.2 mph 83 % 0 in
01:24 62.6 °F 57.4 °F 30.1 in SW 3.5 mph 3.5 mph 83 % 0 in
01:29 62.4 °F 57.6 °F 30.1 in WSW 2.3 mph 2.3 mph 84 % 0 in
01:34 62.4 °F 57.6 °F 30.1 in SW 2.3 mph 2.3 mph 84 % 0 in
01:39 62.6 °F 57.7 °F 30.1 in WSW 2.3 mph 2.3 mph 84 % 0 in
01:44 62.6 °F 57.7 °F 30.1 in Calm     84 % 0 in
01:49 62.6 °F 57.7 °F 30.1 in NNE 1.2 mph 1.2 mph 84 % 0 in
01:54 62.6 °F 57.9 °F 30.1 in Calm     85 % 0 in
01:59 62.4 °F 57.7 °F 30.1 in Calm     85 % 0 in
02:04 62.4 °F 57.7 °F 30.1 in Calm     85 % 0 in
02:09 62.2 °F 57.7 °F 30.1 in Calm     85 % 0 in
02:14 62.4 °F 57.7 °F 30.1 in ENE 1.2 mph 1.2 mph 85 % 0 in
02:19 62.4 °F 57.7 °F 30.1 in Calm     85 % 0 in
02:24 62.2 °F 57.9 °F 30.1 in NE 1.2 mph 1.2 mph 86 % 0 in
02:29 62.2 °F 57.9 °F 30.1 in Calm     86 % 0 in
02:34 62.2 °F 57.9 °F 30.1 in Calm     86 % 0 in
02:39 62.1 °F 57.7 °F 30.1 in WSW 1.2 mph   86 % 0 in
02:44 61.9 °F 57.4 °F 30.1 in WSW 1.2 mph   85 % 0 in
02:46 62.1 °F 57.6 °F 30.1 in Calm     85 % 0 in
02:51 62.1 °F 57.6 °F 30.1 in Calm     85 % 0 in
02:56 61.7 °F 57 °F 30.1 in SW 2.3 mph 2.3 mph 85 % 0 in
03:01 61.3 °F 56.5 °F 30.1 in WSW 2.3 mph 2.4 mph 84 % 0 in
03:06 61.3 °F 56.5 °F 30.1 in WSW 2.3 mph 2.3 mph 84 % 0 in
03:11 61.5 °F 56.7 °F 30.1 in West 1.2 mph   84 % 0 in
03:16 61.5 °F 57 °F 30.1 in Calm     85 % 0 in
03:21 61.3 °F 56.5 °F 30.1 in SW 2.3 mph 2.3 mph 84 % 0 in
03:26 60.8 °F 55.9 °F 30.1 in SW 3.5 mph 3.5 mph 84 % 0 in
03:31 60.6 °F 55.4 °F 30.1 in SW 4.6 mph   83 % 0 in
03:36 60.6 °F 55.4 °F 30.1 in WNW 1.2 mph 1.4 mph 83 % 0 in
03:41 60.6 °F 55 °F 30.1 in West 3.3 mph 3.3 mph 82 % 0 in
03:46 61.2 °F 54.9 °F 30.1 in WSW 3.5 mph 3.5 mph 80 % 0 in
03:51 61.2 °F 54.7 °F 30.1 in SW 2.3 mph 2.3 mph 79 % 0 in
03:56 61 °F 54.1 °F 30.1 in SW 1.2 mph 1.2 mph 78 % 0 in
04:01 61 °F 54.1 °F 30.1 in WSW 2 mph 2 mph 78 % 0 in
04:06 61.2 °F 54.1 °F 30.1 in WSW 2.4 mph 2.4 mph 78 % 0 in
04:11 61 °F 54.1 °F 30.1 in WSW 2.3 mph 2.4 mph 78 % 0 in
04:16 60.8 °F 53.4 °F 30.1 in SW 2.3 mph 2.3 mph 77 % 0 in
04:21 61 °F 53.4 °F 30.1 in Calm     76 % 0 in
04:26 61.2 °F 53.4 °F 30.1 in WSW 2.3 mph 2.3 mph 76 % 0 in
04:31 61.2 °F 53.2 °F 30.1 in SSE 1.2 mph 1.2 mph 75 % 0 in
04:36 61.3 °F 53.1 °F 30.1 in NNE 2.4 mph 2.4 mph 74 % 0 in
04:41 61.7 °F 53.2 °F 30.1 in ENE 3.5 mph 3.5 mph 74 % 0 in
04:46 61.7 °F 53.2 °F 30.1 in NNW 2.3 mph 2.3 mph 74 % 0 in
04:51 61.7 °F 53.2 °F 30.1 in NNE 2.3 mph 2.3 mph 74 % 0 in
04:56 61.5 °F 53.2 °F 30.1 in West 2.3 mph 2.3 mph 74 % 0 in
05:01 61.3 °F 52.5 °F 30.2 in WNW 1.2 mph   73 % 0 in
05:06 61.2 °F 52.2 °F 30.2 in NNE 2.3 mph 2.3 mph 72 % 0 in
05:12 61 °F 52 °F 30.2 in NE 3.5 mph 3.5 mph 72 % 0 in
05:17 61 °F 51.4 °F 30.2 in NNW 2.3 mph 2.3 mph 71 % 0 in
05:21 60.8 °F 51.3 °F 30.2 in NE 1.2 mph 1.2 mph 71 % 0 in
05:26 60.8 °F 51.3 °F 30.2 in NW 1.4 mph 1.4 mph 71 % 0 in
05:31 60.4 °F 51.1 °F 30.2 in WNW 3.1 mph 3.1 mph 71 % 0 in
05:36 60.3 °F 50.4 °F 30.2 in NNW 1.2 mph 1.2 mph 70 % 0 in
05:41 60.1 °F 50.4 °F 30.2 in NW 2.3 mph 2.3 mph 70 % 0 in
05:42 60.1 °F 50.4 °F 30.2 in West 1.4 mph 1.4 mph 70 % 0 in
05:47 59.9 °F 50.2 °F 30.2 in WNW 2.3 mph 2.3 mph 70 % 0 in
05:52 59.5 °F 49.6 °F 30.2 in NNE 2.3 mph 2.3 mph 70 % 0 in
05:57 59.5 °F 49.6 °F 30.2 in North 1.2 mph 1.2 mph 70 % 0 in
06:02 59.4 °F 49.6 °F 30.2 in NE 2.2 mph 2.2 mph 70 % 0 in
06:07 59.2 °F 49.5 °F 30.2 in NNE 4.6 mph 4.6 mph 70 % 0 in
06:12 59.2 °F 48.9 °F 30.2 in NNE 2 mph   69 % 0 in
06:17 59.2 °F 48.9 °F 30.2 in NE 2.9 mph 2.9 mph 69 % 0 in
06:22 59 °F 48.7 °F 30.2 in NE 3.5 mph 3.5 mph 69 % 0 in
06:27 59 °F 48.7 °F 30.2 in NNE 3.8 mph 3.8 mph 69 % 0 in
06:32 59 °F 48.7 °F 30.2 in NNE 2.3 mph 2.3 mph 69 % 0 in
06:37 59 °F 48.7 °F 30.2 in ENE 3.5 mph 3.5 mph 69 % 0 in
06:42 59 °F 48.4 °F 30.2 in NE 5.8 mph 5.8 mph 68 % 0 in
06:47 59 °F 48.4 °F 30.2 in NNW 3.6 mph 3.6 mph 68 % 0 in
06:52 59 °F 48.4 °F 30.2 in ENE 3.6 mph 3.6 mph 68 % 0 in
06:57 59 °F 48.4 °F 30.2 in East 3.5 mph 3.5 mph 68 % 0 in
07:02 59 °F 48.4 °F 30.2 in NE 2.3 mph 2.3 mph 68 % 0 in
07:12 58.8 °F 47.8 °F 30.2 in NE 3.5 mph 3.5 mph 67 % 0 in
07:17 58.8 °F 47.8 °F 30.2 in NNW 4.6 mph 4.6 mph 67 % 0 in
07:22 58.8 °F 47.8 °F 30.2 in NE 3.5 mph 3.5 mph 67 % 0 in
07:32 58.6 °F 47.7 °F 30.2 in WNW 2.3 mph 2.3 mph 67 % 0 in
07:37 58.6 °F 47.7 °F 30.2 in WNW 2.3 mph 2.3 mph 67 % 0 in
07:42 58.5 °F 47.1 °F 30.2 in North 1.2 mph   66 % 0 in
07:47 58.5 °F 47.5 °F 30.2 in NNE 1.2 mph   67 % 0 in
07:52 58.6 °F 47.3 °F 30.2 in ENE 2.3 mph 2.3 mph 66 % 0 in
07:57 58.6 °F 47.3 °F 30.2 in NE 2.3 mph 2.3 mph 66 % 0 in
08:02 58.6 °F 47.3 °F 30.2 in NNE 2.3 mph 2.3 mph 66 % 0 in
08:07 58.6 °F 47.3 °F 30.2 in NW 1.2 mph 1.2 mph 66 % 0 in
08:12 58.6 °F 47.3 °F 30.2 in NNE 2.6 mph 2.6 mph 66 % 0 in
08:17 59 °F 47.7 °F 30.2 in NE 3.1 mph 3.1 mph 66 % 0 in
08:22 58.8 °F 47.5 °F 30.2 in NNE 4.6 mph 4.6 mph 66 % 0 in
08:27 58.8 °F 47.5 °F 30.2 in ENE 1.2 mph 1.2 mph 66 % 0 in
08:32 58.6 °F 47.3 °F 30.2 in ENE 4.3 mph 4.3 mph 66 % 0 in
08:37 58.6 °F 47.3 °F 30.2 in NNE 3.5 mph 3.5 mph 66 % 0 in
08:42 58.6 °F 47.3 °F 30.2 in NE 4.6 mph 4.6 mph 66 % 0 in
08:47 58.6 °F 47.3 °F 30.2 in ENE 5.8 mph 5.8 mph 66 % 0 in
08:52 59 °F 47.7 °F 30.2 in NNW 5.8 mph 5.8 mph 66 % 0 in
08:57 59 °F 47.1 °F 30.2 in ENE 4.6 mph 4.6 mph 65 % 0 in
09:02 59.2 °F 47.5 °F 30.2 in NE 4.6 mph 4.6 mph 65 % 0 in
09:07 59.5 °F 47.8 °F 30.2 in NE 2.4 mph 2.4 mph 65 % 0 in
09:08 59.5 °F 47.8 °F 30.2 in East 2.4 mph 2.4 mph 65 % 0 in
09:13 59.5 °F 47.8 °F 30.2 in NNE 3.5 mph 3.5 mph 65 % 0 in
09:18 59.5 °F 47.8 °F 30.2 in NE 3.5 mph 3.5 mph 65 % 0 in
09:23 59.4 °F 47.7 °F 30.2 in North 4.6 mph 4.6 mph 65 % 0 in
09:28 59.4 °F 47.1 °F 30.2 in NNE 5.8 mph 5.8 mph 64 % 0 in
09:33 59.4 °F 47.1 °F 30.2 in NNE 2.3 mph 2.9 mph 64 % 0 in
09:38 59.2 °F 46.9 °F 30.2 in NNW 6.9 mph 6.9 mph 64 % 0 in
09:43 59.2 °F 46.9 °F 30.2 in NNE 5.8 mph 5.8 mph 64 % 0 in
09:48 59.2 °F 46.9 °F 30.2 in ENE 8.1 mph 8.1 mph 64 % 0 in
09:53 59.4 °F 47.1 °F 30.2 in NE 5.9 mph 5.9 mph 64 % 0 in
09:58 59.4 °F 47.1 °F 30.2 in NNE 5.8 mph 5.8 mph 64 % 0 in
10:03 59.4 °F 46.8 °F 30.2 in ENE 2.9 mph 2.9 mph 63 % 0 in
10:08 59.7 °F 47.5 °F 30.2 in NE 8.1 mph 8.1 mph 64 % 0 in
10:13 59.9 °F 47.3 °F 30.2 in ESE 4.6 mph 4.6 mph 63 % 0 in
10:18 60.1 °F 47.5 °F 30.2 in NNE 5.8 mph 5.8 mph 63 % 0 in
10:23 60.1 °F 47.5 °F 30.2 in NNW 3.5 mph 3.5 mph 63 % 0 in
10:28 60.6 °F 47.8 °F 30.2 in NNW 3.5 mph 3.5 mph 63 % 0 in
10:33 60.4 °F 47.5 °F 30.3 in ENE 4.6 mph 4.6 mph 62 % 0 in
10:38 60.6 °F 47.5 °F 30.3 in NNW 4.6 mph 4.6 mph 62 % 0 in
10:43 61 °F 47.8 °F 30.3 in East 3.5 mph 3.5 mph 62 % 0 in
10:48 61.2 °F 47.7 °F 30.3 in NNE 8.1 mph 8.1 mph 61 % 0 in
10:53 61.7 °F 48 °F 30.3 in NE 3.5 mph 3.5 mph 61 % 0 in
10:58 61.7 °F 48 °F 30.3 in NNE 5.8 mph 5.8 mph 61 % 0 in
11:03 62.1 °F 48.4 °F 30.2 in North 4.6 mph 4.6 mph 61 % 0 in
11:08 62.1 °F 48.4 °F 30.2 in NNE 3.5 mph 3.5 mph 61 % 0 in
11:13 61.9 °F 47.8 °F 30.2 in NNE 3.5 mph 3.5 mph 60 % 0 in
11:23 62.2 °F 48.2 °F 30.2 in NNE 4.6 mph 4.6 mph 60 % 0 in
11:28 62.6 °F 48 °F 30.2 in NNE 5.8 mph 5.8 mph 59 % 0 in
11:38 62.6 °F 47.7 °F 30.2 in NNE 3.6 mph 3.6 mph 58 % 0 in
11:43 62.8 °F 47.8 °F 30.2 in NNE 4.6 mph 4.6 mph 58 % 0 in
11:48 63 °F 47.8 °F 30.3 in NE 4.6 mph 4.6 mph 58 % 0 in
11:53 63.9 °F 48.7 °F 30.3 in ENE 4.6 mph 4.6 mph 58 % 0 in
11:58 64.8 °F 49.3 °F 30.3 in NE 4.6 mph 4.6 mph 57 % 0 in
12:03 65.3 °F 49.3 °F 30.3 in ENE 2.3 mph 2.3 mph 56 % 0 in
12:08 65.3 °F 49.3 °F 30.3 in East 2.3 mph 2.3 mph 56 % 0 in
12:13 65.5 °F 49.5 °F 30.3 in NNE 4.6 mph 4.6 mph 56 % 0 in
12:18 65.5 °F 48.9 °F 30.3 in ESE 6.9 mph 6.9 mph 55 % 0 in
12:23 66.4 °F 49.3 °F 30.3 in South 8.1 mph 8.1 mph 54 % 0 in
12:33 67.3 °F 50.2 °F 30.3 in WSW 2.3 mph 2.3 mph 54 % 0 in
12:34 67.3 °F 50.2 °F 30.3 in WSW 2.4 mph 2.4 mph 54 % 0 in
12:39 67.1 °F 49.8 °F 30.3 in ENE 2.3 mph 2.3 mph 54 % 0 in
12:44 68.2 °F 50.4 °F 30.2 in East 3.6 mph 3.6 mph 53 % 0 in
12:49 68.2 °F 50.4 °F 30.2 in NNW 4.6 mph 4.6 mph 53 % 0 in
12:54 67.8 °F 49.5 °F 30.2 in WSW 4.6 mph 4.6 mph 52 % 0 in
12:59 68 °F 49.6 °F 30.2 in North 4.6 mph 4.6 mph 52 % 0 in
13:04 68.4 °F 50 °F 30.2 in ENE 4.6 mph 4.6 mph 52 % 0 in
13:09 68.2 °F 49.8 °F 30.2 in ESE 3.5 mph 3.5 mph 52 % 0 in
13:14 68.4 °F 50 °F 30.2 in ESE 4.3 mph 4.3 mph 52 % 0 in
13:19 68.7 °F 50.4 °F 30.2 in ESE 6.9 mph 6.9 mph 52 % 0 in
13:24 70 °F 51.1 °F 30.2 in ESE 3.5 mph 3.5 mph 51 % 0 in
13:34 70.2 °F 50.5 °F 30.2 in SE 5.8 mph 5.8 mph 50 % 0 in
13:39 70.9 °F 51.8 °F 30.2 in WSW 2.6 mph 3.1 mph 51 % 0 in
13:44 70.3 °F 50.7 °F 30.2 in ESE 9.2 mph 9.2 mph 50 % 0 in
13:49 70.5 °F 51.1 °F 30.2 in South 6.9 mph 6.9 mph 50 % 0 in
13:54 70.5 °F 51.1 °F 30.2 in NNE 4.6 mph 4.6 mph 50 % 0 in
13:59 70 °F 50.5 °F 30.2 in East 4.6 mph 4.6 mph 50 % 0 in
14:04 70.7 °F 51.1 °F 30.2 in East 3.5 mph 3.5 mph 50 % 0 in
14:09 71.4 °F 51.8 °F 30.2 in SSW 4 mph 4 mph 50 % 0 in
14:14 72.1 °F 52.5 °F 30.2 in South 5.8 mph 5.8 mph 50 % 0 in
14:19 73.2 °F 52.9 °F 30.2 in SSE 2.9 mph 2.9 mph 49 % 0 in
14:24 72 °F 51.8 °F 30.2 in NE 3.5 mph 3.5 mph 49 % 0 in
14:29 72.9 °F 52.5 °F 30.2 in East 4.9 mph 4.9 mph 49 % 0 in
14:34 72.5 °F 52.2 °F 30.2 in South 3.5 mph 3.5 mph 49 % 0 in
14:39 73.2 °F 52.3 °F 30.2 in ENE 9.2 mph 9.2 mph 48 % 0 in
14:44 72.5 °F 51.6 °F 30.2 in SE 4.6 mph 4.6 mph 48 % 0 in
14:49 73.8 °F 52.9 °F 30.2 in South 9.2 mph 9.2 mph 48 % 0 in
14:54 73.4 °F 52 °F 30.2 in SW 3.5 mph 3.5 mph 47 % 0 in
14:59 74.1 °F 53.2 °F 30.2 in WSW 4.6 mph 4.6 mph 48 % 0 in
15:04 73.9 °F 53.1 °F 30.2 in NW 6.9 mph 6.9 mph 48 % 0 in
15:09 73.4 °F 52.5 °F 30.2 in WSW 3.5 mph 3.5 mph 48 % 0 in
15:14 74.3 °F 53.2 °F 30.2 in SW 6.9 mph 6.9 mph 48 % 0 in
15:19 74.7 °F 53.8 °F 30.2 in South 3.1 mph 3.1 mph 48 % 0 in
15:24 74.3 °F 53.2 °F 30.2 in SW 6.9 mph 6.9 mph 48 % 0 in
15:29 74.3 °F 53.2 °F 30.2 in SW 7.4 mph 7.4 mph 48 % 0 in
15:34 74.1 °F 52.5 °F 30.2 in West 4.6 mph 4.6 mph 47 % 0 in
15:39 74.3 °F 52.9 °F 30.2 in South 2.3 mph 2.4 mph 47 % 0 in
15:49 75.7 °F 54.1 °F 30.2 in SSW 5.8 mph 5.8 mph 47 % 0 in
15:54 75.9 °F 54.1 °F 30.2 in SW 3.6 mph 3.6 mph 47 % 0 in
15:59 76.3 °F 54.7 °F 30.2 in WSW 4.6 mph 4.6 mph 47 % 0 in
16:04 75.4 °F 53.2 °F 30.2 in SW 3.5 mph 3.5 mph 46 % 0 in
16:09 73.8 °F 51.6 °F 30.2 in East 3.5 mph 3.5 mph 46 % 0 in
16:14 73.8 °F 51.6 °F 30.2 in ENE 4.6 mph 4.6 mph 46 % 0 in
16:19 74.5 °F 52.9 °F 30.2 in WSW 4.6 mph 4.6 mph 47 % 0 in
16:20 74.5 °F 52.9 °F 30.2 in SSW 4.6 mph 4.6 mph 47 % 0 in
16:25 73.2 °F 51.3 °F 30.2 in SE 8.1 mph 8.1 mph 46 % 0 in
16:30 73 °F 51.1 °F 30.2 in NE 8.5 mph 8.5 mph 46 % 0 in
16:35 73.2 °F 50.5 °F 30.2 in South 6.9 mph 6.9 mph 45 % 0 in
16:40 73.4 °F 50.2 °F 30.2 in SSE 5.8 mph 5.8 mph 44 % 0 in
16:45 73.8 °F 51.1 °F 30.2 in South 5.9 mph 5.9 mph 45 % 0 in
16:50 73.6 °F 50.4 °F 30.2 in ENE 10.4 mph 10.4 mph 44 % 0 in
16:55 74.7 °F 52.5 °F 30.2 in WSW 5.8 mph 5.8 mph 46 % 0 in
17:00 75.2 °F 53.1 °F 30.2 in WSW 5.4 mph 5.4 mph 46 % 0 in
17:05 75 °F 52.9 °F 30.2 in South 6.9 mph 6.9 mph 46 % 0 in
17:10 74.3 °F 52.2 °F 30.2 in SW 10.4 mph 10.4 mph 46 % 0 in
17:15 73.9 °F 51.8 °F 30.2 in SW 10.4 mph 10.4 mph 46 % 0 in
17:20 73.8 °F 51.6 °F 30.2 in SSE 3.5 mph 3.5 mph 46 % 0 in
17:25 73.9 °F 51.8 °F 30.2 in SW 8.1 mph 8.1 mph 46 % 0 in
17:30 74.1 °F 52 °F 30.2 in SW 3.6 mph 3.6 mph 46 % 0 in
17:35 73.8 °F 51.6 °F 30.2 in SW 6.9 mph 6.9 mph 46 % 0 in
17:40 73 °F 51.1 °F 30.2 in South 8.1 mph 8.1 mph 46 % 0 in
17:45 73 °F 51.6 °F 30.2 in SW 3.5 mph 3.5 mph 47 % 0 in
17:50 72.1 °F 50.7 °F 30.2 in SW 4.6 mph 4.6 mph 47 % 0 in
17:55 71.4 °F 50.2 °F 30.2 in WSW 4.6 mph 4.6 mph 47 % 0 in
18:00 70.7 °F 49.5 °F 30.2 in South 9.2 mph 9.2 mph 47 % 0 in
18:05 70 °F 48.7 °F 30.2 in SW 5.8 mph 5.8 mph 47 % 0 in
18:10 69.8 °F 48.7 °F 30.2 in South 5.8 mph 5.8 mph 47 % 0 in
18:15 69.8 °F 49.3 °F 30.2 in SSW 2.6 mph 2.6 mph 48 % 0 in
18:20 69.4 °F 49.5 °F 30.2 in SW 5.6 mph 5.6 mph 49 % 0 in
18:25 69.4 °F 49.5 °F 30.2 in West 4.6 mph 4.6 mph 49 % 0 in
18:30 69.6 °F 49.6 °F 30.2 in SSW 5.8 mph 5.8 mph 49 % 0 in
18:31 69.6 °F 49.6 °F 30.2 in WSW 6.9 mph 6.9 mph 49 % 0 in
18:36 69.1 °F 49.1 °F 30.2 in SSW 4.6 mph 4.6 mph 49 % 0 in
18:41 68.7 °F 49.3 °F 30.2 in SW 8.1 mph 8.1 mph 50 % 0 in
18:46 68.7 °F 49.3 °F 30.2 in WSW 8.1 mph 8.1 mph 50 % 0 in
18:51 68.4 °F 48.9 °F 30.2 in SW 3.5 mph 3.5 mph 50 % 0 in
18:56 68.2 °F 48.7 °F 30.2 in South 8.1 mph 8.1 mph 50 % 0 in
19:01 68 °F 49.3 °F 30.2 in SW 3.5 mph 3.5 mph 51 % 0 in
19:06 67.6 °F 48.9 °F 30.2 in SSW 5.6 mph 5.6 mph 51 % 0 in
19:11 67.3 °F 48.6 °F 30.2 in SW 4.3 mph 4.3 mph 51 % 0 in
19:16 66.9 °F 48.2 °F 30.2 in SW 3.5 mph 3.5 mph 51 % 0 in
19:21 66.7 °F 48.6 °F 30.2 in SW 4 mph 4 mph 52 % 0 in
19:22 66.7 °F 48.6 °F 30.2 in WSW 4.6 mph 4.6 mph 52 % 0 in
19:27 66.2 °F 48 °F 30.2 in SW 4.6 mph 4.6 mph 52 % 0 in
19:32 65.8 °F 48.2 °F 30.2 in SW 5.6 mph 5.6 mph 53 % 0 in
19:42 65.3 °F 48.2 °F 30.2 in SW 4.6 mph 4.6 mph 54 % 0 in
19:47 65.1 °F 48 °F 30.2 in SW 2.3 mph 2.3 mph 54 % 0 in
19:52 64.9 °F 47.8 °F 30.2 in SW 2.4 mph 2.4 mph 54 % 0 in
19:57 64.6 °F 48 °F 30.2 in SW 2.3 mph 2.3 mph 55 % 0 in
20:02 64.2 °F 47.7 °F 30.2 in SW 2.4 mph 2.4 mph 55 % 0 in
20:07 64 °F 47.5 °F 30.2 in WSW 4.6 mph 4.6 mph 55 % 0 in
20:12 63.9 °F 47.8 °F 30.2 in West 2.6 mph 2.6 mph 56 % 0 in
20:17 63.9 °F 47.8 °F 30.2 in SSW 2.4 mph 2.4 mph 56 % 0 in
20:22 63.7 °F 47.7 °F 30.2 in WSW 2.3 mph 2.3 mph 56 % 0 in
20:27 63.5 °F 48 °F 30.2 in WSW 4.6 mph 4.6 mph 57 % 0 in
20:37 63.3 °F 48.4 °F 30.2 in Calm     58 % 0 in
20:42 63.1 °F 48 °F 30.2 in SW 2.3 mph 2.3 mph 58 % 0 in
20:47 63 °F 47.8 °F 30.2 in WSW 2.3 mph 2.3 mph 58 % 0 in
20:52 63 °F 47.8 °F 30.2 in SW 2.3 mph 2.3 mph 58 % 0 in
20:57 62.8 °F 48.2 °F 30.2 in SW 2.3 mph 2.3 mph 59 % 0 in
21:02 62.8 °F 48.2 °F 30.2 in SW 2 mph 2 mph 59 % 0 in
21:07 62.6 °F 48 °F 30.2 in SW 1.6 mph 1.6 mph 59 % 0 in
21:12 62.6 °F 48 °F 30.2 in SW 2.3 mph 2.3 mph 59 % 0 in
21:17 62.4 °F 48.7 °F 30.2 in Calm     61 % 0 in
21:22 62.2 °F 48.6 °F 30.2 in WSW 1.2 mph 1.2 mph 61 % 0 in
21:27 62.2 °F 48.6 °F 30.2 in Calm     61 % 0 in
21:32 62.1 °F 48.4 °F 30.2 in Calm     61 % 0 in
21:37 61.9 °F 48.7 °F 30.2 in Calm     62 % 0 in
21:42 61.7 °F 48.6 °F 30.2 in Calm     62 % 0 in
21:47 61.5 °F 48.4 °F 30.2 in Calm     62 % 0 in
21:52 61.5 °F 48.4 °F 30.2 in Calm     62 % 0 in
21:57 61.3 °F 48.6 °F 30.2 in Calm     63 % 0 in
22:02 61.3 °F 48.6 °F 30.2 in Calm     63 % 0 in
22:07 61.3 °F 48.6 °F 30.2 in West 2.3 mph 2.3 mph 63 % 0 in
22:12 61.5 °F 48.7 °F 30.2 in West 1.4 mph 1.4 mph 63 % 0 in
22:17 61.3 °F 49.1 °F 30.2 in Calm     64 % 0 in
22:22 61.3 °F 49.1 °F 30.2 in Calm     64 % 0 in
22:32 61 °F 48.7 °F 30.2 in West 1.2 mph   64 % 0 in
22:37 60.8 °F 48.6 °F 30.2 in Calm     64 % 0 in
22:42 60.4 °F 48.2 °F 30.2 in West 1.4 mph   64 % 0 in
22:47 60.3 °F 48.4 °F 30.2 in Calm     65 % 0 in
22:52 60.1 °F 48.4 °F 30.2 in Calm     65 % 0 in
22:57 59.9 °F 48 °F 30.2 in Calm     65 % 0 in
23:02 59.7 °F 48.4 °F 30.2 in Calm     66 % 0 in
23:07 59.5 °F 48.2 °F 30.2 in Calm     66 % 0 in
23:12 59.5 °F 48.2 °F 30.2 in Calm     66 % 0 in
23:17 59.4 °F 48 °F 30.2 in Calm     66 % 0 in
23:22 59.2 °F 48.2 °F 30.2 in Calm     67 % 0 in
23:27 59 °F 48 °F 30.2 in Calm     67 % 0 in
23:32 59 °F 48.4 °F 30.2 in Calm     68 % 0 in
23:37 59 °F 48.4 °F 30.2 in Calm     68 % 0 in
23:42 58.8 °F 48.4 °F 30.2 in Calm     68 % 0 in
23:47 58.8 °F 48.4 °F 30.2 in West 0.9 mph   68 % 0 in
23:52 58.8 °F 48.4 °F 30.2 in Calm     68 % 0 in
23:57 58.6 °F 48.6 °F 30.2 in Calm     69 % 0 in
Meteo Sesrovires
Elogis d' Weather Underground - 4 mb

Guio original per  Jim McMurry - jmcmurry@mwt.net Adaptat per a la plantilla per  Wim van der Kuil - Leuven-Template.eu

Trobareu la nostra informacio del temps tambe a:

Weather Underground

AWEKAS